sensor_id;sensor_type;location;lat;lon;timestamp;P1;durP1;ratioP1;P2;durP2;ratioP2
20986;SDS011;10652;50.306;8.570;2022-12-10T00:00:39;30.10;;;18.15;;
20986;SDS011;10652;50.306;8.570;2022-12-10T00:04:41;25.83;;;16.27;;
20986;SDS011;10652;50.306;8.570;2022-12-10T00:08:50;21.33;;;13.95;;
20986;SDS011;10652;50.306;8.570;2022-12-10T00:12:52;19.98;;;13.32;;
20986;SDS011;10652;50.306;8.570;2022-12-10T00:16:54;28.10;;;17.70;;
20986;SDS011;10652;50.306;8.570;2022-12-10T00:20:56;20.73;;;13.13;;
20986;SDS011;10652;50.306;8.570;2022-12-10T00:24:58;15.10;;;10.43;;
20986;SDS011;10652;50.306;8.570;2022-12-10T00:29:01;14.05;;;9.57;;
20986;SDS011;10652;50.306;8.570;2022-12-10T00:33:05;19.10;;;12.15;;
20986;SDS011;10652;50.306;8.570;2022-12-10T00:37:07;13.27;;;10.07;;
20986;SDS011;10652;50.306;8.570;2022-12-10T00:41:09;14.40;;;9.65;;
20986;SDS011;10652;50.306;8.570;2022-12-10T00:45:12;18.35;;;10.98;;
20986;SDS011;10652;50.306;8.570;2022-12-10T00:49:14;12.13;;;9.05;;
20986;SDS011;10652;50.306;8.570;2022-12-10T00:53:16;13.50;;;9.48;;
20986;SDS011;10652;50.306;8.570;2022-12-10T00:57:18;13.50;;;9.48;;
20986;SDS011;10652;50.306;8.570;2022-12-10T01:01:24;11.60;;;8.50;;
20986;SDS011;10652;50.306;8.570;2022-12-10T01:05:26;13.02;;;9.65;;
20986;SDS011;10652;50.306;8.570;2022-12-10T01:09:29;12.15;;;8.50;;
20986;SDS011;10652;50.306;8.570;2022-12-10T01:13:32;10.45;;;8.15;;
20986;SDS011;10652;50.306;8.570;2022-12-10T01:17:34;11.88;;;8.80;;
20986;SDS011;10652;50.306;8.570;2022-12-10T01:21:36;12.20;;;9.07;;
20986;SDS011;10652;50.306;8.570;2022-12-10T01:25:38;13.73;;;9.25;;
20986;SDS011;10652;50.306;8.570;2022-12-10T01:29:41;11.52;;;8.50;;
20986;SDS011;10652;50.306;8.570;2022-12-10T01:33:44;10.27;;;7.78;;
20986;SDS011;10652;50.306;8.570;2022-12-10T01:37:46;12.35;;;8.70;;
20986;SDS011;10652;50.306;8.570;2022-12-10T01:45:52;12.20;;;9.02;;
20986;SDS011;10652;50.306;8.570;2022-12-10T01:49:54;11.68;;;8.25;;
20986;SDS011;10652;50.306;8.570;2022-12-10T01:53:59;10.80;;;7.97;;
20986;SDS011;10652;50.306;8.570;2022-12-10T01:58:02;11.82;;;7.75;;
20986;SDS011;10652;50.306;8.570;2022-12-10T02:02:08;11.40;;;8.07;;
20986;SDS011;10652;50.306;8.570;2022-12-10T02:11:46;11.30;;;8.45;;
20986;SDS011;10652;50.306;8.570;2022-12-10T02:15:25;11.88;;;8.30;;
20986;SDS011;10652;50.306;8.570;2022-12-10T02:19:41;11.65;;;7.47;;
20986;SDS011;10652;50.306;8.570;2022-12-10T02:24:05;10.77;;;8.07;;
20986;SDS011;10652;50.306;8.570;2022-12-10T02:28:28;9.38;;;7.60;;
20986;SDS011;10652;50.306;8.570;2022-12-10T02:32:41;11.45;;;8.23;;
20986;SDS011;10652;50.306;8.570;2022-12-10T02:36:48;12.18;;;8.55;;
20986;SDS011;10652;50.306;8.570;2022-12-10T02:40:56;11.00;;;8.48;;
20986;SDS011;10652;50.306;8.570;2022-12-10T02:45:04;14.43;;;8.25;;
20986;SDS011;10652;50.306;8.570;2022-12-10T02:49:07;12.57;;;9.60;;
20986;SDS011;10652;50.306;8.570;2022-12-10T02:53:13;12.95;;;8.77;;
20986;SDS011;10652;50.306;8.570;2022-12-10T03:10:43;10.77;;;8.00;;
20986;SDS011;10652;50.306;8.570;2022-12-10T03:15:08;10.88;;;8.40;;
20986;SDS011;10652;50.306;8.570;2022-12-10T03:19:13;11.00;;;8.40;;
20986;SDS011;10652;50.306;8.570;2022-12-10T03:23:20;10.73;;;8.00;;
20986;SDS011;10652;50.306;8.570;2022-12-10T03:27:23;11.90;;;8.75;;
20986;SDS011;10652;50.306;8.570;2022-12-10T03:31:25;13.98;;;8.77;;
20986;SDS011;10652;50.306;8.570;2022-12-10T03:35:28;11.27;;;8.00;;
20986;SDS011;10652;50.306;8.570;2022-12-10T03:39:30;11.52;;;8.38;;
20986;SDS011;10652;50.306;8.570;2022-12-10T03:43:34;11.80;;;8.75;;
20986;SDS011;10652;50.306;8.570;2022-12-10T03:47:36;12.35;;;8.40;;
20986;SDS011;10652;50.306;8.570;2022-12-10T03:51:38;11.55;;;8.43;;
20986;SDS011;10652;50.306;8.570;2022-12-10T03:55:40;11.65;;;8.20;;
20986;SDS011;10652;50.306;8.570;2022-12-10T03:59:42;12.35;;;8.57;;
20986;SDS011;10652;50.306;8.570;2022-12-10T04:03:44;11.68;;;9.00;;
20986;SDS011;10652;50.306;8.570;2022-12-10T04:07:46;12.48;;;9.48;;
20986;SDS011;10652;50.306;8.570;2022-12-10T04:11:48;12.07;;;9.00;;
20986;SDS011;10652;50.306;8.570;2022-12-10T04:15:50;12.25;;;8.73;;
20986;SDS011;10652;50.306;8.570;2022-12-10T04:20:11;10.00;;;7.32;;
20986;SDS011;10652;50.306;8.570;2022-12-10T04:24:32;9.00;;;7.28;;
20986;SDS011;10652;50.306;8.570;2022-12-10T04:28:54;10.13;;;7.68;;
20986;SDS011;10652;50.306;8.570;2022-12-10T04:32:56;10.30;;;7.90;;
20986;SDS011;10652;50.306;8.570;2022-12-10T04:36:58;9.90;;;7.22;;
20986;SDS011;10652;50.306;8.570;2022-12-10T04:41:02;10.70;;;7.60;;
20986;SDS011;10652;50.306;8.570;2022-12-10T04:45:04;9.63;;;7.38;;
20986;SDS011;10652;50.306;8.570;2022-12-10T04:49:07;10.13;;;7.68;;
20986;SDS011;10652;50.306;8.570;2022-12-10T04:53:09;11.02;;;7.35;;
20986;SDS011;10652;50.306;8.570;2022-12-10T04:57:11;9.75;;;7.30;;
20986;SDS011;10652;50.306;8.570;2022-12-10T05:01:13;10.75;;;7.30;;
20986;SDS011;10652;50.306;8.570;2022-12-10T05:05:16;9.15;;;7.20;;
20986;SDS011;10652;50.306;8.570;2022-12-10T05:09:18;9.57;;;7.07;;
20986;SDS011;10652;50.306;8.570;2022-12-10T05:13:20;9.77;;;7.15;;
20986;SDS011;10652;50.306;8.570;2022-12-10T05:17:22;9.75;;;7.57;;
20986;SDS011;10652;50.306;8.570;2022-12-10T05:21:25;10.43;;;7.72;;
20986;SDS011;10652;50.306;8.570;2022-12-10T05:25:47;9.93;;;7.65;;
20986;SDS011;10652;50.306;8.570;2022-12-10T05:29:54;9.30;;;7.75;;
20986;SDS011;10652;50.306;8.570;2022-12-10T05:33:57;12.10;;;8.63;;
20986;SDS011;10652;50.306;8.570;2022-12-10T05:37:59;11.07;;;8.00;;
20986;SDS011;10652;50.306;8.570;2022-12-10T05:42:01;9.98;;;7.00;;
20986;SDS011;10652;50.306;8.570;2022-12-10T05:46:05;9.43;;;7.13;;
20986;SDS011;10652;50.306;8.570;2022-12-10T05:50:08;9.00;;;6.80;;
20986;SDS011;10652;50.306;8.570;2022-12-10T05:54:11;9.88;;;7.70;;
20986;SDS011;10652;50.306;8.570;2022-12-10T05:58:13;10.05;;;7.05;;
20986;SDS011;10652;50.306;8.570;2022-12-10T06:02:15;9.75;;;7.35;;
20986;SDS011;10652;50.306;8.570;2022-12-10T06:06:21;14.07;;;10.07;;
20986;SDS011;10652;50.306;8.570;2022-12-10T06:10:33;11.18;;;8.40;;
20986;SDS011;10652;50.306;8.570;2022-12-10T06:14:36;11.38;;;8.20;;
20986;SDS011;10652;50.306;8.570;2022-12-10T06:18:38;11.38;;;8.48;;
20986;SDS011;10652;50.306;8.570;2022-12-10T06:22:41;11.38;;;7.60;;
20986;SDS011;10652;50.306;8.570;2022-12-10T06:26:43;9.10;;;7.22;;
20986;SDS011;10652;50.306;8.570;2022-12-10T06:30:45;10.73;;;7.43;;
20986;SDS011;10652;50.306;8.570;2022-12-10T06:34:47;9.85;;;7.45;;
20986;SDS011;10652;50.306;8.570;2022-12-10T06:38:49;10.15;;;7.95;;
20986;SDS011;10652;50.306;8.570;2022-12-10T06:42:51;10.73;;;7.85;;
20986;SDS011;10652;50.306;8.570;2022-12-10T06:46:54;10.80;;;7.82;;
20986;SDS011;10652;50.306;8.570;2022-12-10T06:50:56;10.20;;;8.23;;
20986;SDS011;10652;50.306;8.570;2022-12-10T06:54:58;15.70;;;8.32;;
20986;SDS011;10652;50.306;8.570;2022-12-10T06:59:03;11.10;;;8.38;;
20986;SDS011;10652;50.306;8.570;2022-12-10T07:03:06;11.75;;;8.65;;
20986;SDS011;10652;50.306;8.570;2022-12-10T07:07:08;11.10;;;8.05;;
20986;SDS011;10652;50.306;8.570;2022-12-10T07:11:11;11.02;;;8.20;;
20986;SDS011;10652;50.306;8.570;2022-12-10T07:15:15;11.52;;;7.85;;
20986;SDS011;10652;50.306;8.570;2022-12-10T07:19:17;12.07;;;8.50;;
20986;SDS011;10652;50.306;8.570;2022-12-10T07:23:20;11.18;;;8.35;;
20986;SDS011;10652;50.306;8.570;2022-12-10T07:27:22;11.38;;;8.23;;
20986;SDS011;10652;50.306;8.570;2022-12-10T07:31:24;11.82;;;8.05;;
20986;SDS011;10652;50.306;8.570;2022-12-10T07:35:27;11.18;;;8.30;;
20986;SDS011;10652;50.306;8.570;2022-12-10T07:39:29;15.00;;;8.75;;
20986;SDS011;10652;50.306;8.570;2022-12-10T07:43:35;10.90;;;8.38;;
20986;SDS011;10652;50.306;8.570;2022-12-10T07:47:38;10.38;;;8.40;;
20986;SDS011;10652;50.306;8.570;2022-12-10T07:51:44;10.80;;;7.97;;
20986;SDS011;10652;50.306;8.570;2022-12-10T07:55:50;11.55;;;8.18;;
20986;SDS011;10652;50.306;8.570;2022-12-10T07:59:52;12.02;;;8.70;;
20986;SDS011;10652;50.306;8.570;2022-12-10T08:03:55;11.43;;;8.73;;
20986;SDS011;10652;50.306;8.570;2022-12-10T08:08:00;10.30;;;8.20;;
20986;SDS011;10652;50.306;8.570;2022-12-10T08:12:08;11.40;;;8.50;;
20986;SDS011;10652;50.306;8.570;2022-12-10T08:16:15;11.63;;;7.88;;
20986;SDS011;10652;50.306;8.570;2022-12-10T08:20:21;10.98;;;8.15;;
20986;SDS011;10652;50.306;8.570;2022-12-10T08:24:24;10.07;;;7.82;;
20986;SDS011;10652;50.306;8.570;2022-12-10T08:28:26;11.93;;;8.75;;
20986;SDS011;10652;50.306;8.570;2022-12-10T08:32:28;12.48;;;9.43;;
20986;SDS011;10652;50.306;8.570;2022-12-10T08:36:30;11.02;;;8.90;;
20986;SDS011;10652;50.306;8.570;2022-12-10T08:40:32;17.85;;;10.23;;
20986;SDS011;10652;50.306;8.570;2022-12-10T08:44:35;13.02;;;10.93;;
20986;SDS011;10652;50.306;8.570;2022-12-10T08:48:37;19.05;;;14.02;;
20986;SDS011;10652;50.306;8.570;2022-12-10T08:52:40;37.80;;;20.27;;
20986;SDS011;10652;50.306;8.570;2022-12-10T08:56:42;18.58;;;13.60;;
20986;SDS011;10652;50.306;8.570;2022-12-10T09:00:44;14.00;;;10.10;;
20986;SDS011;10652;50.306;8.570;2022-12-10T09:04:46;14.40;;;12.23;;
20986;SDS011;10652;50.306;8.570;2022-12-10T09:08:51;14.45;;;10.18;;
20986;SDS011;10652;50.306;8.570;2022-12-10T09:12:53;13.95;;;10.85;;
20986;SDS011;10652;50.306;8.570;2022-12-10T09:17:04;14.73;;;10.52;;
20986;SDS011;10652;50.306;8.570;2022-12-10T09:21:14;16.63;;;11.45;;
20986;SDS011;10652;50.306;8.570;2022-12-10T09:25:18;15.93;;;10.85;;
20986;SDS011;10652;50.306;8.570;2022-12-10T09:29:22;14.65;;;10.38;;
20986;SDS011;10652;50.306;8.570;2022-12-10T09:33:25;12.75;;;9.65;;
20986;SDS011;10652;50.306;8.570;2022-12-10T09:37:28;13.75;;;10.27;;
20986;SDS011;10652;50.306;8.570;2022-12-10T09:50:38;13.20;;;10.57;;
20986;SDS011;10652;50.306;8.570;2022-12-10T09:59:08;14.73;;;10.68;;
20986;SDS011;10652;50.306;8.570;2022-12-10T10:03:18;17.63;;;11.60;;
20986;SDS011;10652;50.306;8.570;2022-12-10T10:07:21;14.10;;;10.95;;
20986;SDS011;10652;50.306;8.570;2022-12-10T10:11:30;16.92;;;12.52;;
20986;SDS011;10652;50.306;8.570;2022-12-10T10:15:35;20.20;;;14.20;;
20986;SDS011;10652;50.306;8.570;2022-12-10T10:19:39;15.68;;;12.43;;
20986;SDS011;10652;50.306;8.570;2022-12-10T10:23:43;18.45;;;13.38;;
20986;SDS011;10652;50.306;8.570;2022-12-10T10:27:46;16.83;;;11.85;;
20986;SDS011;10652;50.306;8.570;2022-12-10T10:31:57;16.08;;;12.02;;
20986;SDS011;10652;50.306;8.570;2022-12-10T10:36:15;16.17;;;11.93;;
20986;SDS011;10652;50.306;8.570;2022-12-10T10:44:41;16.40;;;12.00;;
20986;SDS011;10652;50.306;8.570;2022-12-10T10:48:43;17.30;;;12.40;;
20986;SDS011;10652;50.306;8.570;2022-12-10T10:52:45;17.55;;;13.43;;
20986;SDS011;10652;50.306;8.570;2022-12-10T10:56:47;19.10;;;13.15;;
20986;SDS011;10652;50.306;8.570;2022-12-10T11:00:57;20.50;;;15.23;;
20986;SDS011;10652;50.306;8.570;2022-12-10T11:05:04;20.08;;;13.82;;
20986;SDS011;10652;50.306;8.570;2022-12-10T11:09:13;12.95;;;9.57;;
20986;SDS011;10652;50.306;8.570;2022-12-10T11:13:25;11.77;;;9.65;;
20986;SDS011;10652;50.306;8.570;2022-12-10T11:17:28;14.35;;;10.60;;
20986;SDS011;10652;50.306;8.570;2022-12-10T11:21:31;12.10;;;9.25;;
20986;SDS011;10652;50.306;8.570;2022-12-10T11:30:05;11.73;;;8.63;;
20986;SDS011;10652;50.306;8.570;2022-12-10T11:52:21;10.88;;;8.15;;
20986;SDS011;10652;50.306;8.570;2022-12-10T11:56:30;13.20;;;9.63;;
20986;SDS011;10652;50.306;8.570;2022-12-10T12:00:41;9.93;;;8.30;;
20986;SDS011;10652;50.306;8.570;2022-12-10T12:09:48;9.15;;;7.20;;
20986;SDS011;10652;50.306;8.570;2022-12-10T12:14:05;11.10;;;7.78;;
20986;SDS011;10652;50.306;8.570;2022-12-10T12:22:31;10.07;;;7.60;;
20986;SDS011;10652;50.306;8.570;2022-12-10T12:30:48;11.25;;;7.95;;
20986;SDS011;10652;50.306;8.570;2022-12-10T12:35:00;8.77;;;7.00;;
20986;SDS011;10652;50.306;8.570;2022-12-10T12:47:48;10.23;;;7.40;;
20986;SDS011;10652;50.306;8.570;2022-12-10T12:52:05;9.45;;;7.60;;
20986;SDS011;10652;50.306;8.570;2022-12-10T13:00:56;9.20;;;7.80;;
20986;SDS011;10652;50.306;8.570;2022-12-10T13:05:02;13.05;;;10.43;;
20986;SDS011;10652;50.306;8.570;2022-12-10T13:13:22;16.17;;;11.07;;
20986;SDS011;10652;50.306;8.570;2022-12-10T13:17:33;20.08;;;14.68;;
20986;SDS011;10652;50.306;8.570;2022-12-10T13:21:37;19.30;;;13.40;;
20986;SDS011;10652;50.306;8.570;2022-12-10T13:25:58;23.65;;;14.48;;
20986;SDS011;10652;50.306;8.570;2022-12-10T13:30:26;13.98;;;10.93;;
20986;SDS011;10652;50.306;8.570;2022-12-10T13:34:34;25.50;;;17.20;;
20986;SDS011;10652;50.306;8.570;2022-12-10T13:38:42;15.48;;;10.75;;
20986;SDS011;10652;50.306;8.570;2022-12-10T13:52:14;9.82;;;7.53;;
20986;SDS011;10652;50.306;8.570;2022-12-10T13:56:28;10.05;;;7.80;;
20986;SDS011;10652;50.306;8.570;2022-12-10T14:09:45;9.50;;;7.78;;
20986;SDS011;10652;50.306;8.570;2022-12-10T14:13:53;8.82;;;6.80;;
20986;SDS011;10652;50.306;8.570;2022-12-10T14:18:00;7.80;;;6.72;;
20986;SDS011;10652;50.306;8.570;2022-12-10T14:22:04;8.73;;;6.97;;
20986;SDS011;10652;50.306;8.570;2022-12-10T14:26:13;8.52;;;6.40;;
20986;SDS011;10652;50.306;8.570;2022-12-10T14:30:22;8.88;;;7.20;;
20986;SDS011;10652;50.306;8.570;2022-12-10T14:34:28;8.20;;;6.97;;
20986;SDS011;10652;50.306;8.570;2022-12-10T14:38:31;8.52;;;6.18;;
20986;SDS011;10652;50.306;8.570;2022-12-10T14:42:39;10.35;;;7.78;;
20986;SDS011;10652;50.306;8.570;2022-12-10T14:46:41;11.05;;;8.68;;
20986;SDS011;10652;50.306;8.570;2022-12-10T14:50:45;11.50;;;8.20;;
20986;SDS011;10652;50.306;8.570;2022-12-10T14:54:47;8.40;;;6.80;;
20986;SDS011;10652;50.306;8.570;2022-12-10T14:58:55;8.68;;;6.60;;
20986;SDS011;10652;50.306;8.570;2022-12-10T15:03:07;10.55;;;7.85;;
20986;SDS011;10652;50.306;8.570;2022-12-10T15:07:17;8.90;;;7.22;;
20986;SDS011;10652;50.306;8.570;2022-12-10T15:11:23;10.13;;;7.57;;
20986;SDS011;10652;50.306;8.570;2022-12-10T15:15:34;13.50;;;9.68;;
20986;SDS011;10652;50.306;8.570;2022-12-10T15:19:41;8.05;;;7.00;;
20986;SDS011;10652;50.306;8.570;2022-12-10T15:23:44;11.32;;;8.30;;
20986;SDS011;10652;50.306;8.570;2022-12-10T15:27:55;11.63;;;8.88;;
20986;SDS011;10652;50.306;8.570;2022-12-10T15:32:00;17.77;;;10.20;;
20986;SDS011;10652;50.306;8.570;2022-12-10T15:36:11;12.13;;;7.97;;
20986;SDS011;10652;50.306;8.570;2022-12-10T15:48:31;10.07;;;7.97;;
20986;SDS011;10652;50.306;8.570;2022-12-10T15:52:33;9.70;;;7.68;;
20986;SDS011;10652;50.306;8.570;2022-12-10T15:56:36;10.70;;;7.82;;
20986;SDS011;10652;50.306;8.570;2022-12-10T16:00:38;13.18;;;8.02;;
20986;SDS011;10652;50.306;8.570;2022-12-10T16:04:45;9.07;;;7.32;;
20986;SDS011;10652;50.306;8.570;2022-12-10T16:08:47;10.02;;;7.53;;
20986;SDS011;10652;50.306;8.570;2022-12-10T16:12:58;15.50;;;9.75;;
20986;SDS011;10652;50.306;8.570;2022-12-10T16:17:02;10.35;;;7.97;;
20986;SDS011;10652;50.306;8.570;2022-12-10T16:21:04;12.65;;;9.35;;
20986;SDS011;10652;50.306;8.570;2022-12-10T16:25:08;13.48;;;9.18;;
20986;SDS011;10652;50.306;8.570;2022-12-10T16:29:10;11.13;;;8.32;;
20986;SDS011;10652;50.306;8.570;2022-12-10T16:33:12;12.38;;;8.50;;
20986;SDS011;10652;50.306;8.570;2022-12-10T16:37:14;9.20;;;7.40;;
20986;SDS011;10652;50.306;8.570;2022-12-10T16:41:18;12.68;;;8.77;;
20986;SDS011;10652;50.306;8.570;2022-12-10T16:45:24;13.07;;;10.45;;
20986;SDS011;10652;50.306;8.570;2022-12-10T16:49:28;12.40;;;9.25;;
20986;SDS011;10652;50.306;8.570;2022-12-10T16:53:30;12.80;;;8.30;;
20986;SDS011;10652;50.306;8.570;2022-12-10T16:57:37;10.48;;;7.97;;
20986;SDS011;10652;50.306;8.570;2022-12-10T17:01:41;14.57;;;9.70;;
20986;SDS011;10652;50.306;8.570;2022-12-10T17:05:44;20.73;;;13.20;;
20986;SDS011;10652;50.306;8.570;2022-12-10T17:09:47;23.02;;;15.05;;
20986;SDS011;10652;50.306;8.570;2022-12-10T17:13:49;13.07;;;9.15;;
20986;SDS011;10652;50.306;8.570;2022-12-10T17:17:52;13.93;;;9.77;;
20986;SDS011;10652;50.306;8.570;2022-12-10T17:21:54;12.10;;;8.73;;
20986;SDS011;10652;50.306;8.570;2022-12-10T17:25:56;11.65;;;8.20;;
20986;SDS011;10652;50.306;8.570;2022-12-10T17:29:59;16.63;;;12.50;;
20986;SDS011;10652;50.306;8.570;2022-12-10T17:34:01;13.95;;;10.50;;
20986;SDS011;10652;50.306;8.570;2022-12-10T17:38:03;18.58;;;13.98;;
20986;SDS011;10652;50.306;8.570;2022-12-10T17:42:05;18.67;;;13.18;;
20986;SDS011;10652;50.306;8.570;2022-12-10T17:46:10;18.20;;;13.13;;
20986;SDS011;10652;50.306;8.570;2022-12-10T17:50:27;26.88;;;17.13;;
20986;SDS011;10652;50.306;8.570;2022-12-10T17:54:36;17.95;;;11.88;;
20986;SDS011;10652;50.306;8.570;2022-12-10T17:58:38;17.23;;;11.43;;
20986;SDS011;10652;50.306;8.570;2022-12-10T18:02:41;14.85;;;12.02;;
20986;SDS011;10652;50.306;8.570;2022-12-10T18:06:43;12.07;;;8.38;;
20986;SDS011;10652;50.306;8.570;2022-12-10T18:10:46;14.50;;;9.82;;
20986;SDS011;10652;50.306;8.570;2022-12-10T18:14:48;13.68;;;9.70;;
20986;SDS011;10652;50.306;8.570;2022-12-10T18:18:50;15.23;;;11.63;;
20986;SDS011;10652;50.306;8.570;2022-12-10T18:22:52;21.52;;;14.23;;
20986;SDS011;10652;50.306;8.570;2022-12-10T18:26:54;15.13;;;10.85;;
20986;SDS011;10652;50.306;8.570;2022-12-10T18:30:58;19.02;;;13.07;;
20986;SDS011;10652;50.306;8.570;2022-12-10T18:35:04;20.50;;;13.48;;
20986;SDS011;10652;50.306;8.570;2022-12-10T18:39:07;21.40;;;13.02;;
20986;SDS011;10652;50.306;8.570;2022-12-10T18:43:18;18.50;;;12.00;;
20986;SDS011;10652;50.306;8.570;2022-12-10T18:47:21;18.50;;;11.70;;
20986;SDS011;10652;50.306;8.570;2022-12-10T18:51:23;18.00;;;12.35;;
20986;SDS011;10652;50.306;8.570;2022-12-10T18:55:25;17.98;;;11.75;;
20986;SDS011;10652;50.306;8.570;2022-12-10T18:59:28;17.15;;;11.90;;
20986;SDS011;10652;50.306;8.570;2022-12-10T19:03:30;17.95;;;12.30;;
20986;SDS011;10652;50.306;8.570;2022-12-10T19:07:32;20.35;;;13.82;;
20986;SDS011;10652;50.306;8.570;2022-12-10T19:11:34;19.30;;;12.65;;
20986;SDS011;10652;50.306;8.570;2022-12-10T19:15:37;16.73;;;12.35;;
20986;SDS011;10652;50.306;8.570;2022-12-10T19:19:43;17.27;;;11.77;;
20986;SDS011;10652;50.306;8.570;2022-12-10T19:23:46;18.08;;;12.35;;
20986;SDS011;10652;50.306;8.570;2022-12-10T19:27:48;19.20;;;11.55;;
20986;SDS011;10652;50.306;8.570;2022-12-10T19:31:50;17.80;;;12.00;;
20986;SDS011;10652;50.306;8.570;2022-12-10T19:35:53;20.60;;;13.32;;
20986;SDS011;10652;50.306;8.570;2022-12-10T19:39:55;15.00;;;9.85;;
20986;SDS011;10652;50.306;8.570;2022-12-10T19:43:57;18.05;;;12.07;;
20986;SDS011;10652;50.306;8.570;2022-12-10T19:47:59;19.83;;;13.10;;
20986;SDS011;10652;50.306;8.570;2022-12-10T19:52:01;17.50;;;11.63;;
20986;SDS011;10652;50.306;8.570;2022-12-10T19:56:38;16.05;;;11.13;;
20986;SDS011;10652;50.306;8.570;2022-12-10T20:00:33;19.75;;;12.98;;
20986;SDS011;10652;50.306;8.570;2022-12-10T20:04:35;17.20;;;11.65;;
20986;SDS011;10652;50.306;8.570;2022-12-10T20:08:37;20.80;;;13.93;;
20986;SDS011;10652;50.306;8.570;2022-12-10T20:12:39;17.75;;;12.60;;
20986;SDS011;10652;50.306;8.570;2022-12-10T20:16:41;19.05;;;12.07;;
20986;SDS011;10652;50.306;8.570;2022-12-10T20:20:44;19.60;;;12.25;;
20986;SDS011;10652;50.306;8.570;2022-12-10T20:24:46;17.13;;;11.77;;
20986;SDS011;10652;50.306;8.570;2022-12-10T20:28:48;21.23;;;12.98;;
20986;SDS011;10652;50.306;8.570;2022-12-10T20:32:51;19.55;;;12.98;;
20986;SDS011;10652;50.306;8.570;2022-12-10T20:36:53;19.35;;;12.10;;
20986;SDS011;10652;50.306;8.570;2022-12-10T20:40:55;24.50;;;15.68;;
20986;SDS011;10652;50.306;8.570;2022-12-10T20:44:57;19.42;;;12.43;;
20986;SDS011;10652;50.306;8.570;2022-12-10T20:49:00;19.67;;;13.00;;
20986;SDS011;10652;50.306;8.570;2022-12-10T20:53:02;19.00;;;12.02;;
20986;SDS011;10652;50.306;8.570;2022-12-10T20:57:04;17.42;;;11.40;;
20986;SDS011;10652;50.306;8.570;2022-12-10T21:01:06;18.50;;;12.13;;
20986;SDS011;10652;50.306;8.570;2022-12-10T21:05:08;17.80;;;11.40;;
20986;SDS011;10652;50.306;8.570;2022-12-10T21:09:11;18.33;;;12.23;;
20986;SDS011;10652;50.306;8.570;2022-12-10T21:13:14;19.52;;;12.80;;
20986;SDS011;10652;50.306;8.570;2022-12-10T21:17:16;20.83;;;14.48;;
20986;SDS011;10652;50.306;8.570;2022-12-10T21:21:19;18.90;;;12.73;;
20986;SDS011;10652;50.306;8.570;2022-12-10T21:25:22;24.30;;;14.73;;
20986;SDS011;10652;50.306;8.570;2022-12-10T21:29:24;18.00;;;11.55;;
20986;SDS011;10652;50.306;8.570;2022-12-10T21:33:27;18.55;;;12.20;;
20986;SDS011;10652;50.306;8.570;2022-12-10T21:37:29;19.00;;;12.07;;
20986;SDS011;10652;50.306;8.570;2022-12-10T21:41:31;19.20;;;11.85;;
20986;SDS011;10652;50.306;8.570;2022-12-10T21:45:52;21.48;;;12.73;;
20986;SDS011;10652;50.306;8.570;2022-12-10T21:49:56;19.98;;;12.45;;
20986;SDS011;10652;50.306;8.570;2022-12-10T21:53:58;19.50;;;12.85;;
20986;SDS011;10652;50.306;8.570;2022-12-10T21:58:00;17.23;;;11.82;;
20986;SDS011;10652;50.306;8.570;2022-12-10T22:02:03;18.55;;;12.05;;
20986;SDS011;10652;50.306;8.570;2022-12-10T22:06:06;17.55;;;11.93;;
20986;SDS011;10652;50.306;8.570;2022-12-10T22:10:10;16.83;;;11.55;;
20986;SDS011;10652;50.306;8.570;2022-12-10T22:14:13;19.30;;;11.57;;
20986;SDS011;10652;50.306;8.570;2022-12-10T22:18:15;20.00;;;12.43;;
20986;SDS011;10652;50.306;8.570;2022-12-10T22:22:18;18.40;;;13.05;;
20986;SDS011;10652;50.306;8.570;2022-12-10T22:26:20;19.92;;;12.77;;
20986;SDS011;10652;50.306;8.570;2022-12-10T22:30:23;19.83;;;12.02;;
20986;SDS011;10652;50.306;8.570;2022-12-10T22:34:26;17.40;;;11.55;;
20986;SDS011;10652;50.306;8.570;2022-12-10T22:38:28;18.27;;;11.50;;
20986;SDS011;10652;50.306;8.570;2022-12-10T22:42:34;18.67;;;11.70;;
20986;SDS011;10652;50.306;8.570;2022-12-10T22:46:39;18.73;;;12.50;;
20986;SDS011;10652;50.306;8.570;2022-12-10T22:50:41;17.55;;;10.88;;
20986;SDS011;10652;50.306;8.570;2022-12-10T22:54:43;18.40;;;11.60;;
20986;SDS011;10652;50.306;8.570;2022-12-10T22:58:45;20.23;;;12.07;;
20986;SDS011;10652;50.306;8.570;2022-12-10T23:02:47;17.33;;;11.10;;
20986;SDS011;10652;50.306;8.570;2022-12-10T23:06:51;18.38;;;11.45;;
20986;SDS011;10652;50.306;8.570;2022-12-10T23:10:53;17.92;;;11.65;;
20986;SDS011;10652;50.306;8.570;2022-12-10T23:14:58;18.48;;;11.43;;
20986;SDS011;10652;50.306;8.570;2022-12-10T23:19:00;17.38;;;11.68;;
20986;SDS011;10652;50.306;8.570;2022-12-10T23:23:02;17.67;;;11.65;;
20986;SDS011;10652;50.306;8.570;2022-12-10T23:27:04;19.83;;;11.82;;
20986;SDS011;10652;50.306;8.570;2022-12-10T23:31:06;18.38;;;11.73;;
20986;SDS011;10652;50.306;8.570;2022-12-10T23:35:09;17.95;;;11.10;;
20986;SDS011;10652;50.306;8.570;2022-12-10T23:39:12;18.35;;;11.18;;
20986;SDS011;10652;50.306;8.570;2022-12-10T23:43:14;18.35;;;12.57;;
20986;SDS011;10652;50.306;8.570;2022-12-10T23:47:16;20.08;;;12.85;;
20986;SDS011;10652;50.306;8.570;2022-12-10T23:51:19;19.17;;;12.20;;
20986;SDS011;10652;50.306;8.570;2022-12-10T23:55:21;20.00;;;12.90;;
20986;SDS011;10652;50.306;8.570;2022-12-10T23:59:23;21.35;;;13.32;;
